createdAt,value
2023-02-18T00:01:59.814Z,7.41
2023-02-18T00:04:28.194Z,7.42
2023-02-18T00:06:56.977Z,7.43
2023-02-18T00:09:26.585Z,7.44
2023-02-18T00:11:55.168Z,7.44
2023-02-18T00:14:24.159Z,7.46
2023-02-18T00:16:53.220Z,7.48
2023-02-18T00:19:22.192Z,7.51
2023-02-18T00:21:50.521Z,7.54
2023-02-18T00:24:19.006Z,7.56
2023-02-18T00:26:50.867Z,7.56
2023-02-18T00:29:20.095Z,7.58
2023-02-18T00:31:52.244Z,7.59
2023-02-18T00:34:21.010Z,7.61
2023-02-18T00:36:49.796Z,7.63
2023-02-18T00:39:18.175Z,7.65
2023-02-18T00:41:46.968Z,7.66
2023-02-18T00:44:17.304Z,7.66
2023-02-18T00:46:48.533Z,7.66
2023-02-18T00:49:17.336Z,7.66
2023-02-18T00:51:45.596Z,7.66
2023-02-18T00:54:14.000Z,7.68
2023-02-18T00:56:42.669Z,7.69
2023-02-18T00:59:11.547Z,7.69
2023-02-18T01:01:42.005Z,7.68
2023-02-18T01:04:16.499Z,7.69
2023-02-18T01:06:45.199Z,7.70
2023-02-18T01:09:13.875Z,7.71
2023-02-18T01:11:43.279Z,7.75
2023-02-18T01:14:12.165Z,7.78
2023-02-18T01:16:43.516Z,7.82
2023-02-18T01:19:12.102Z,7.85
2023-02-18T01:21:40.608Z,7.87
2023-02-18T01:24:09.895Z,7.89
2023-02-18T01:26:38.561Z,7.92
2023-02-18T01:29:07.961Z,7.95
2023-02-18T01:31:36.734Z,7.99
2023-02-18T01:34:07.995Z,8.02
2023-02-18T01:36:36.592Z,8.05
2023-02-18T01:39:09.769Z,8.05
2023-02-18T01:41:38.246Z,8.07
2023-02-18T01:44:26.592Z,8.08
2023-02-18T01:46:56.109Z,8.11
2023-02-18T01:49:34.408Z,8.15
2023-02-18T01:52:09.049Z,8.19
2023-02-18T01:54:40.102Z,8.24
2023-02-18T01:57:13.263Z,8.27
2023-02-18T01:59:46.041Z,8.28
2023-02-18T02:02:18.103Z,8.29
2023-02-18T02:04:46.788Z,8.30
2023-02-18T02:07:15.724Z,8.31
2023-02-18T02:09:44.281Z,8.34
2023-02-18T02:12:47.863Z,8.37
2023-02-18T02:15:37.439Z,8.36
2023-02-18T02:18:36.438Z,8.36
2023-02-18T02:21:39.435Z,8.34
2023-02-18T02:24:23.882Z,8.33
2023-02-18T02:27:06.630Z,8.34
2023-02-18T02:29:55.078Z,8.30
2023-02-18T02:32:29.061Z,8.32
2023-02-18T02:35:01.526Z,8.36
2023-02-18T02:37:36.052Z,8.36
2023-02-18T02:40:35.759Z,8.36
2023-02-18T02:43:19.313Z,8.36
2023-02-18T02:46:04.527Z,8.37
2023-02-18T02:48:48.148Z,8.37
2023-02-18T02:51:56.930Z,8.37
2023-02-18T02:54:26.924Z,8.36
2023-02-18T02:57:29.221Z,8.36
2023-02-18T03:00:12.345Z,8.37
2023-02-18T03:02:49.773Z,8.38
2023-02-18T03:05:52.931Z,8.39
2023-02-18T03:08:46.206Z,8.40
2023-02-18T03:11:15.491Z,8.40
2023-02-18T03:13:56.784Z,8.40
2023-02-18T03:16:28.479Z,8.42
2023-02-18T03:19:10.959Z,8.45
2023-02-18T03:21:54.096Z,8.46
2023-02-18T03:24:24.792Z,8.46
2023-02-18T03:26:59.849Z,8.45
2023-02-18T03:29:28.320Z,8.44
2023-02-18T03:32:02.744Z,8.44
2023-02-18T03:34:32.966Z,8.45
2023-02-18T03:37:05.733Z,8.47
2023-02-18T03:39:35.030Z,8.47
2023-02-18T03:42:05.869Z,8.47
2023-02-18T03:44:34.753Z,8.46
2023-02-18T03:47:03.254Z,8.45
2023-02-18T03:49:31.919Z,8.45
2023-02-18T03:52:00.911Z,8.46
2023-02-18T03:54:30.209Z,8.46
2023-02-18T03:56:58.790Z,8.46
2023-02-18T03:59:27.070Z,8.45
2023-02-18T04:01:55.655Z,8.42
2023-02-18T04:04:24.142Z,8.41
2023-02-18T04:06:54.042Z,8.41
2023-02-18T04:09:23.555Z,8.42
2023-02-18T04:11:52.236Z,8.43
2023-02-18T04:14:20.609Z,8.43
2023-02-18T04:16:51.900Z,8.43
2023-02-18T04:19:20.845Z,8.44
2023-02-18T04:21:50.045Z,8.44
2023-02-18T04:24:18.523Z,8.44
2023-02-18T04:26:47.081Z,8.46
2023-02-18T04:29:15.382Z,8.47
2023-02-18T04:31:44.548Z,8.47
2023-02-18T04:34:13.056Z,8.47
2023-02-18T04:36:41.541Z,8.40
2023-02-18T04:39:10.337Z,8.48
2023-02-18T04:41:39.011Z,8.50
2023-02-18T04:44:10.153Z,8.52
2023-02-18T04:46:38.954Z,8.54
2023-02-18T04:49:08.241Z,8.54
2023-02-18T04:51:37.953Z,8.51
2023-02-18T04:54:08.990Z,8.50
2023-02-18T04:56:37.890Z,8.49
2023-02-18T04:59:06.367Z,8.47
2023-02-18T05:01:35.005Z,8.47
2023-02-18T05:04:03.688Z,8.48
2023-02-18T05:06:32.731Z,8.50
2023-02-18T05:09:01.316Z,8.49
2023-02-18T05:11:29.999Z,8.49
2023-02-18T05:13:58.482Z,8.49
2023-02-18T05:16:27.081Z,8.49
2023-02-18T05:18:55.748Z,8.49
2023-02-18T05:21:24.235Z,8.51
2023-02-18T05:23:52.822Z,8.52
2023-02-18T05:26:21.599Z,8.52
2023-02-18T05:28:50.395Z,8.51
2023-02-18T05:31:19.026Z,8.48
2023-02-18T05:33:48.197Z,8.48
2023-02-18T05:36:17.260Z,8.48
2023-02-18T05:38:47.278Z,8.48
2023-02-18T05:41:15.552Z,8.49
2023-02-18T05:44:02.874Z,8.50
2023-02-18T05:46:31.674Z,8.48
2023-02-18T05:49:00.658Z,8.48
2023-02-18T05:51:29.132Z,8.49
2023-02-18T05:57:18.522Z,8.57
2023-02-18T05:59:46.928Z,8.57
2023-02-18T06:02:15.280Z,8.58
2023-02-18T06:04:43.556Z,8.58
2023-02-18T06:07:12.249Z,8.58
2023-02-18T06:09:41.368Z,8.60
2023-02-18T06:12:11.584Z,8.63
2023-02-18T06:14:42.490Z,8.66
2023-02-18T06:17:16.811Z,8.69
2023-02-18T06:19:46.318Z,8.69
2023-02-18T06:22:15.105Z,8.71
2023-02-18T06:24:43.583Z,8.73
2023-02-18T06:27:12.274Z,8.76
2023-02-18T06:29:40.646Z,8.82
2023-02-18T06:32:09.458Z,8.87
2023-02-18T06:34:38.016Z,8.91
2023-02-18T06:37:06.700Z,8.95
2023-02-18T06:39:39.488Z,9.00
2023-02-18T06:42:08.061Z,9.04
2023-02-18T06:44:38.136Z,9.09
2023-02-18T06:47:07.493Z,9.15
2023-02-18T06:49:36.780Z,9.21
2023-02-18T06:52:05.784Z,9.28
2023-02-18T06:54:34.673Z,9.33
2023-02-18T06:57:03.141Z,9.39
2023-02-18T06:59:32.351Z,9.43
2023-02-18T07:02:02.048Z,9.48
2023-02-18T07:04:30.631Z,9.55
2023-02-18T07:06:59.217Z,9.62
2023-02-18T07:09:28.232Z,9.67
2023-02-18T07:11:56.997Z,9.71
2023-02-18T07:14:26.729Z,9.73
2023-02-18T07:16:55.190Z,9.77
2023-02-18T07:19:27.351Z,9.82
2023-02-18T07:21:57.957Z,9.88
2023-02-18T07:24:26.562Z,9.94
2023-02-18T07:26:55.044Z,9.99
2023-02-18T07:29:23.318Z,10.04
2023-02-18T07:53:38.157Z,8.54
2023-02-18T07:56:06.107Z,9.60
2023-02-18T07:58:35.311Z,9.76
2023-02-18T08:01:09.707Z,9.86
2023-02-18T08:03:36.516Z,9.99
2023-02-18T08:06:04.501Z,10.10
2023-02-18T08:08:32.170Z,10.20
2023-02-18T08:14:23.203Z,10.50
2023-02-18T08:16:55.286Z,10.62
2023-02-18T08:19:24.052Z,10.72
2023-02-18T08:21:52.632Z,10.78
2023-02-18T08:24:21.011Z,10.85
2023-02-18T08:27:00.380Z,10.93
2023-02-18T08:29:30.066Z,11.02
2023-02-18T08:31:59.973Z,11.11
2023-02-18T08:34:28.449Z,11.20
2023-02-18T08:36:58.163Z,11.27
2023-02-18T08:39:27.150Z,11.33
2023-02-18T08:41:57.199Z,11.38
2023-02-18T08:44:25.442Z,11.45
2023-02-18T08:46:54.286Z,11.51
2023-02-18T08:49:24.462Z,11.58
2023-02-18T08:51:52.730Z,11.63
2023-02-18T08:54:21.516Z,11.66
2023-02-18T08:56:49.787Z,11.71
2023-02-18T08:59:18.485Z,11.77
2023-02-18T09:01:47.266Z,11.86
2023-02-18T09:04:16.210Z,11.94
2023-02-18T09:06:46.991Z,12.03
2023-02-18T09:09:15.379Z,12.13
2023-02-18T09:11:44.907Z,12.16
2023-02-18T09:14:13.350Z,12.19
2023-02-18T09:16:42.753Z,12.24
2023-02-18T09:19:12.053Z,12.34
2023-02-18T09:21:40.534Z,12.42
2023-02-18T09:24:10.862Z,12.53
2023-02-18T09:26:39.946Z,12.61
2023-02-18T09:29:10.888Z,12.68
2023-02-18T09:31:41.222Z,12.77
2023-02-18T09:34:09.893Z,12.84
2023-02-18T09:36:39.913Z,12.93
2023-02-18T09:39:08.301Z,13.02
2023-02-18T09:41:39.920Z,13.12
2023-02-18T09:44:25.542Z,13.19
2023-02-18T09:47:12.334Z,13.27
2023-02-18T09:49:42.353Z,13.35
2023-02-18T09:52:18.303Z,13.43
2023-02-18T09:54:46.579Z,13.51
2023-02-18T09:57:27.436Z,13.55
2023-02-18T10:00:05.310Z,13.61
2023-02-18T10:03:06.292Z,13.65
2023-02-18T10:05:36.120Z,13.67
2023-02-18T10:08:07.406Z,13.69
2023-02-18T10:10:41.914Z,13.73
2023-02-18T10:13:15.932Z,13.76
2023-02-18T10:15:44.460Z,13.80
2023-02-18T10:18:52.629Z,13.82
2023-02-18T10:21:24.746Z,13.83
2023-02-18T10:24:25.277Z,13.82
2023-02-18T10:26:55.708Z,13.79
2023-02-18T10:29:25.420Z,13.76
2023-02-18T10:32:00.718Z,13.75
2023-02-18T10:34:44.499Z,13.74
2023-02-18T10:37:33.760Z,13.74
2023-02-18T10:40:23.948Z,13.69
2023-02-18T10:43:30.830Z,13.79
2023-02-18T10:46:22.832Z,13.82
2023-02-18T10:49:00.262Z,13.82
2023-02-18T10:51:30.066Z,13.83
2023-02-18T10:53:59.360Z,13.84
2023-02-18T10:56:40.756Z,13.88
2023-02-18T10:59:19.361Z,13.94
2023-02-18T11:01:55.069Z,14.02
2023-02-18T11:04:27.914Z,14.11
2023-02-18T11:06:56.381Z,14.18
2023-02-18T11:09:27.005Z,14.22
2023-02-18T11:12:08.675Z,14.25
2023-02-18T11:14:45.569Z,14.29
2023-02-18T11:17:21.794Z,14.31
2023-02-18T11:19:54.550Z,14.34
2023-02-18T11:22:29.652Z,14.41
2023-02-18T11:24:59.862Z,14.56
2023-02-18T11:27:45.125Z,14.70
2023-02-18T11:30:34.074Z,14.83
2023-02-18T11:33:22.245Z,14.93
2023-02-18T11:35:55.140Z,15.00
2023-02-18T11:38:24.636Z,15.00
2023-02-18T11:40:57.992Z,14.99
2023-02-18T11:43:28.465Z,14.94
2023-02-18T11:46:16.639Z,14.97
2023-02-18T11:48:45.710Z,14.99
2023-02-18T11:51:40.401Z,15.03
2023-02-18T11:54:26.900Z,15.13
2023-02-18T11:56:58.295Z,15.22
2023-02-18T11:59:26.594Z,15.32
2023-02-18T12:02:24.288Z,15.41
2023-02-18T12:05:05.413Z,15.49
2023-02-18T12:07:45.994Z,15.54
2023-02-18T12:10:16.255Z,15.58
2023-02-18T12:12:59.832Z,15.61
2023-02-18T12:15:38.097Z,15.62
2023-02-18T12:18:13.129Z,15.63
2023-02-18T12:21:13.665Z,15.63
2023-02-18T12:23:42.248Z,15.63
2023-02-18T12:26:29.874Z,15.64
2023-02-18T12:29:26.161Z,15.64
2023-02-18T12:32:09.976Z,15.62
2023-02-18T12:34:42.533Z,15.59
2023-02-18T12:37:49.723Z,15.56
2023-02-18T12:40:21.261Z,15.52
2023-02-18T12:42:57.057Z,15.48
2023-02-18T12:45:56.741Z,15.45
2023-02-18T12:48:45.686Z,15.41
2023-02-18T12:51:49.707Z,15.41
2023-02-18T12:54:30.688Z,15.42
2023-02-18T12:57:42.470Z,15.42
2023-02-18T13:00:32.453Z,15.45
2023-02-18T13:03:25.254Z,15.50
2023-02-18T13:06:12.530Z,15.56
2023-02-18T13:09:08.448Z,15.63
2023-02-18T13:11:36.927Z,15.69
2023-02-18T13:14:14.114Z,15.73
2023-02-18T13:16:46.438Z,15.75
2023-02-18T13:19:32.172Z,15.78
2023-02-18T13:22:03.314Z,15.81
2023-02-18T13:24:39.329Z,15.83
2023-02-18T13:27:36.073Z,15.84
2023-02-18T13:30:16.459Z,15.81
2023-02-18T13:32:51.494Z,15.77
2023-02-18T13:35:25.315Z,15.74
2023-02-18T13:38:03.312Z,15.72
2023-02-18T13:40:32.509Z,15.73
2023-02-18T13:43:34.273Z,15.74
2023-02-18T13:46:05.666Z,15.79
2023-02-18T13:48:53.165Z,15.84
2023-02-18T13:51:39.256Z,15.90
2023-02-18T13:54:13.450Z,15.96
2023-02-18T13:56:55.046Z,16.00
2023-02-18T13:59:29.795Z,16.03
2023-02-18T14:02:20.012Z,16.06
2023-02-18T14:04:51.410Z,16.07
2023-02-18T14:07:44.158Z,16.09
2023-02-18T14:10:14.168Z,16.08
2023-02-18T14:12:44.516Z,16.08
2023-02-18T14:15:18.602Z,16.06
2023-02-18T14:18:10.899Z,16.04
2023-02-18T14:20:40.149Z,16.00
2023-02-18T14:23:18.659Z,15.97
2023-02-18T14:25:57.482Z,15.93
2023-02-18T14:28:35.386Z,15.87
2023-02-18T14:31:04.430Z,15.82
2023-02-18T14:33:35.318Z,15.75
2023-02-18T14:36:16.289Z,15.69
2023-02-18T14:39:05.966Z,15.62
2023-02-18T14:41:44.076Z,15.55
2023-02-18T14:44:30.493Z,15.47
2023-02-18T14:47:05.820Z,15.39
2023-02-18T14:49:38.905Z,15.33
2023-02-18T14:52:13.017Z,15.28
2023-02-18T14:54:42.523Z,15.23
2023-02-18T14:57:14.993Z,15.19
2023-02-18T14:59:49.521Z,15.17
2023-02-18T15:02:23.858Z,15.13
2023-02-18T15:04:52.219Z,15.09
2023-02-18T15:07:21.721Z,15.04
2023-02-18T15:09:54.325Z,14.99
2023-02-18T15:12:25.767Z,14.92
2023-02-18T15:14:54.229Z,14.85
2023-02-18T15:17:24.801Z,14.78
2023-02-18T15:19:55.077Z,14.69
2023-02-18T15:22:27.755Z,14.59
2023-02-18T15:24:56.442Z,14.53
2023-02-18T15:27:31.682Z,14.47
2023-02-18T15:30:17.600Z,14.42
2023-02-18T15:32:50.174Z,14.39
2023-02-18T15:35:20.057Z,14.35
2023-02-18T15:37:53.386Z,14.32
2023-02-18T15:40:23.040Z,14.27
2023-02-18T15:42:52.918Z,14.20
2023-02-18T15:45:22.734Z,14.15
2023-02-18T15:47:53.526Z,14.08
2023-02-18T15:50:23.230Z,14.03
2023-02-18T15:52:52.220Z,13.99
2023-02-18T15:55:34.561Z,13.97
2023-02-18T15:58:04.878Z,13.96
2023-02-18T16:00:40.490Z,13.96
2023-02-18T16:03:28.141Z,13.96
2023-02-18T16:06:13.000Z,13.93
2023-02-18T16:08:41.475Z,13.88
2023-02-18T16:11:12.202Z,13.83
2023-02-18T16:13:47.237Z,13.78
2023-02-18T16:16:24.031Z,13.71
2023-02-18T16:18:53.618Z,13.66
2023-02-18T16:21:31.424Z,13.61
2023-02-18T16:24:01.583Z,13.58
2023-02-18T16:26:39.958Z,13.57
2023-02-18T16:29:34.460Z,13.57
2023-02-18T16:32:03.320Z,13.55
2023-02-18T16:34:31.914Z,13.52
2023-02-18T16:37:19.390Z,13.49
2023-02-18T16:39:49.764Z,13.46
2023-02-18T16:42:18.142Z,13.43
2023-02-18T16:44:48.356Z,13.42
2023-02-18T16:47:17.681Z,13.43
2023-02-18T16:49:47.377Z,13.44
2023-02-18T16:52:17.296Z,13.44
2023-02-18T16:54:48.159Z,13.40
2023-02-18T16:57:16.603Z,13.35
2023-02-18T16:59:45.344Z,13.33
2023-02-18T17:02:19.196Z,13.31
2023-02-18T17:04:47.984Z,13.30
2023-02-18T17:07:16.260Z,13.31
2023-02-18T17:09:44.641Z,13.18
2023-02-18T17:12:13.732Z,13.02
2023-02-18T17:14:42.213Z,12.90
2023-02-18T17:17:14.380Z,12.83
2023-02-18T17:19:42.758Z,12.77
2023-02-18T17:22:12.983Z,12.69
2023-02-18T17:24:41.375Z,12.66
2023-02-18T17:27:11.378Z,12.69
2023-02-18T17:29:39.892Z,12.71
2023-02-18T17:32:11.544Z,12.64
2023-02-18T17:34:41.319Z,12.56
2023-02-18T17:37:13.182Z,12.48
2023-02-18T17:39:41.867Z,12.43
2023-02-18T17:42:14.959Z,12.40
2023-02-18T17:44:45.178Z,12.40
2023-02-18T17:47:13.658Z,12.39
2023-02-18T17:49:42.585Z,12.38
2023-02-18T17:52:24.036Z,12.37
2023-02-18T17:54:52.513Z,12.35
2023-02-18T17:57:20.891Z,12.36
2023-02-18T17:59:49.372Z,12.40
2023-02-18T18:02:27.920Z,12.42
2023-02-18T18:04:56.264Z,12.46
2023-02-18T18:07:24.847Z,12.49
2023-02-18T18:09:55.298Z,12.51
2023-02-18T18:12:23.750Z,12.51
2023-02-18T18:14:53.021Z,12.49
2023-02-18T18:17:21.338Z,12.48
2023-02-18T18:19:49.808Z,12.47
2023-02-18T18:22:19.008Z,12.49
2023-02-18T18:24:47.485Z,12.48
2023-02-18T18:27:15.864Z,12.46
2023-02-18T18:29:44.242Z,12.44
2023-02-18T18:32:16.827Z,12.41
2023-02-18T18:34:49.049Z,12.37
2023-02-18T18:37:17.880Z,12.34
2023-02-18T18:39:46.268Z,12.33
2023-02-18T18:42:14.538Z,12.30
2023-02-18T18:44:43.426Z,12.27
2023-02-18T18:47:12.239Z,12.20
2023-02-18T18:49:40.694Z,12.16
2023-02-18T18:52:11.136Z,12.10
2023-02-18T18:54:41.670Z,12.11
2023-02-18T18:57:10.156Z,12.03
2023-02-18T18:59:44.250Z,11.97
2023-02-18T19:02:16.216Z,11.94
2023-02-18T19:04:44.619Z,11.91
2023-02-18T19:07:13.366Z,11.89
2023-02-18T19:09:41.950Z,11.87
2023-02-18T19:12:10.744Z,11.87
2023-02-18T19:14:39.221Z,11.88
2023-02-18T19:17:07.634Z,11.89
2023-02-18T19:19:36.079Z,11.89
2023-02-18T19:22:04.463Z,11.88
2023-02-18T19:24:33.647Z,11.88
2023-02-18T19:27:02.143Z,11.87
2023-02-18T19:29:30.612Z,11.88
2023-02-18T19:31:59.317Z,11.89
2023-02-18T19:34:28.285Z,11.90
2023-02-18T19:36:56.771Z,11.90
2023-02-18T19:39:26.272Z,11.89
2023-02-18T19:41:54.665Z,11.87
2023-02-18T19:44:26.517Z,11.85
2023-02-18T19:46:55.507Z,11.85
2023-02-18T19:49:26.343Z,11.85
2023-02-18T19:51:54.675Z,11.86
2023-02-18T19:54:22.902Z,11.85
2023-02-18T19:56:51.609Z,11.81
2023-02-18T19:59:19.855Z,11.80
2023-02-18T20:01:48.614Z,11.79
2023-02-18T20:04:17.129Z,11.79
2023-02-18T20:06:45.502Z,11.71
2023-02-18T20:09:14.086Z,11.71
2023-02-18T20:11:42.565Z,11.66
2023-02-18T20:14:10.952Z,11.61
2023-02-18T20:16:39.422Z,11.61
2023-02-18T20:19:08.620Z,11.60
2023-02-18T20:21:38.021Z,11.50
2023-02-18T20:24:10.096Z,11.39
2023-02-18T20:26:38.369Z,11.26
2023-02-18T20:29:06.945Z,11.28
2023-02-18T20:31:35.571Z,11.30
2023-02-18T20:34:04.032Z,11.32
2023-02-18T20:36:32.897Z,11.35
2023-02-18T20:39:15.411Z,11.37
2023-02-18T20:41:45.546Z,11.28
2023-02-18T20:44:15.973Z,11.24
2023-02-18T20:46:44.591Z,11.27
2023-02-18T20:49:15.181Z,11.30
2023-02-18T20:51:43.850Z,11.33
2023-02-18T20:54:15.917Z,11.37
2023-02-18T20:56:44.205Z,11.43
2023-02-18T20:59:14.209Z,11.46
2023-02-18T21:01:43.443Z,11.45
2023-02-18T21:04:12.704Z,11.46
2023-02-18T21:06:41.193Z,11.45
2023-02-18T21:09:10.800Z,11.49
2023-02-18T21:11:40.321Z,11.51
2023-02-18T21:14:09.289Z,11.50
2023-02-18T21:16:40.663Z,11.50
2023-02-18T21:19:12.116Z,11.48
2023-02-18T21:21:40.462Z,11.48
2023-02-18T21:24:09.558Z,11.47
2023-02-18T21:26:38.446Z,11.48
2023-02-18T21:29:08.567Z,11.51
2023-02-18T21:31:41.454Z,11.53
2023-02-18T21:34:13.739Z,11.53
2023-02-18T21:36:43.650Z,11.55
2023-02-18T21:39:12.009Z,11.55
2023-02-18T21:41:42.233Z,11.57
2023-02-18T21:44:10.606Z,11.61
2023-02-18T21:46:39.437Z,11.64
2023-02-18T21:49:10.032Z,11.65
2023-02-18T21:51:57.564Z,11.67
2023-02-18T21:54:40.582Z,11.66
2023-02-18T21:57:22.161Z,11.67
2023-02-18T21:59:50.853Z,11.69
2023-02-18T22:02:21.760Z,11.70
2023-02-18T22:04:50.785Z,11.70
2023-02-18T22:07:21.930Z,11.70
2023-02-18T22:09:51.020Z,11.70
2023-02-18T22:12:21.867Z,11.70
2023-02-18T22:14:50.347Z,11.72
2023-02-18T22:17:19.541Z,11.72
2023-02-18T22:19:50.091Z,11.72
2023-02-18T22:22:18.756Z,11.71
2023-02-18T22:24:47.434Z,11.71
2023-02-18T22:27:15.922Z,11.70
2023-02-18T22:29:47.669Z,11.70
2023-02-18T22:32:16.467Z,11.72
2023-02-18T22:34:44.854Z,11.74
2023-02-18T22:37:13.342Z,11.69
2023-02-18T22:39:42.001Z,11.78
2023-02-18T22:42:10.281Z,11.79
2023-02-18T22:44:39.860Z,11.80
2023-02-18T22:47:08.158Z,11.81
2023-02-18T22:49:36.634Z,11.80
2023-02-18T22:52:07.580Z,11.75
2023-02-18T22:54:35.953Z,11.76
2023-02-18T22:57:04.464Z,11.76
2023-02-18T22:59:33.219Z,11.73
2023-02-18T23:02:01.704Z,11.66
2023-02-18T23:04:30.593Z,11.61
2023-02-18T23:06:58.877Z,11.69
2023-02-18T23:09:27.347Z,11.68
2023-02-18T23:11:57.669Z,11.64
2023-02-18T23:14:30.772Z,11.62
2023-02-18T23:17:15.424Z,11.62
2023-02-18T23:19:51.286Z,11.60
2023-02-18T23:22:32.465Z,11.61
2023-02-18T23:25:01.352Z,11.63
2023-02-18T23:27:30.437Z,11.65
2023-02-18T23:29:58.886Z,11.64
2023-02-18T23:32:29.146Z,11.62
2023-02-18T23:34:58.031Z,11.66
2023-02-18T23:37:45.882Z,11.65
2023-02-18T23:40:15.364Z,11.65
2023-02-18T23:42:43.660Z,11.61
2023-02-18T23:45:12.302Z,11.61
2023-02-18T23:47:40.613Z,11.53
2023-02-18T23:50:09.289Z,11.50
2023-02-18T23:52:38.793Z,11.52
2023-02-18T23:55:07.682Z,11.51
2023-02-18T23:57:35.988Z,11.43
